sensor_id;sensor_type;location;lat;lon;timestamp;P1;durP1;ratioP1;P2;durP2;ratioP2
7412;SDS011;3748;48.136;11.538;2023-02-15T00:01:16;95.93;;;20.00;;
7412;SDS011;3748;48.136;11.538;2023-02-15T00:03:44;50.83;;;16.63;;
7412;SDS011;3748;48.136;11.538;2023-02-15T00:11:23;33.00;;;13.60;;
7412;SDS011;3748;48.136;11.538;2023-02-15T00:24:46;30.30;;;12.97;;
7412;SDS011;3748;48.136;11.538;2023-02-15T00:27:15;19.33;;;11.13;;
7412;SDS011;3748;48.136;11.538;2023-02-15T00:29:42;18.63;;;11.80;;
7412;SDS011;3748;48.136;11.538;2023-02-15T00:32:09;26.37;;;12.17;;
7412;SDS011;3748;48.136;11.538;2023-02-15T00:34:36;19.63;;;12.07;;
7412;SDS011;3748;48.136;11.538;2023-02-15T00:37:03;21.70;;;11.70;;
7412;SDS011;3748;48.136;11.538;2023-02-15T00:39:29;22.00;;;12.97;;
7412;SDS011;3748;48.136;11.538;2023-02-15T00:47:09;19.73;;;11.77;;
7412;SDS011;3748;48.136;11.538;2023-02-15T00:49:35;22.00;;;11.53;;
7412;SDS011;3748;48.136;11.538;2023-02-15T00:52:02;24.53;;;11.63;;
7412;SDS011;3748;48.136;11.538;2023-02-15T01:02:17;26.67;;;12.03;;
7412;SDS011;3748;48.136;11.538;2023-02-15T02:13:28;16.97;;;10.70;;
7412;SDS011;3748;48.136;11.538;2023-02-15T02:15:57;17.17;;;10.43;;
7412;SDS011;3748;48.136;11.538;2023-02-15T02:18:35;19.67;;;9.97;;
7412;SDS011;3748;48.136;11.538;2023-02-15T02:21:17;21.53;;;9.70;;
7412;SDS011;3748;48.136;11.538;2023-02-15T02:29:54;71.13;;;17.10;;
7412;SDS011;3748;48.136;11.538;2023-02-15T02:33:03;40.80;;;12.50;;
7412;SDS011;3748;48.136;11.538;2023-02-15T02:35:44;20.53;;;10.13;;
7412;SDS011;3748;48.136;11.538;2023-02-15T02:38:20;16.50;;;8.87;;
7412;SDS011;3748;48.136;11.538;2023-02-15T02:40:55;28.03;;;11.80;;
7412;SDS011;3748;48.136;11.538;2023-02-15T02:43:31;33.50;;;10.63;;
7412;SDS011;3748;48.136;11.538;2023-02-15T02:46:02;14.50;;;9.70;;
7412;SDS011;3748;48.136;11.538;2023-02-15T02:48:36;20.77;;;10.83;;
7412;SDS011;3748;48.136;11.538;2023-02-15T02:51:03;33.50;;;12.40;;
7412;SDS011;3748;48.136;11.538;2023-02-15T02:53:30;20.23;;;10.77;;
7412;SDS011;3748;48.136;11.538;2023-02-15T02:56:00;28.33;;;13.20;;
7412;SDS011;3748;48.136;11.538;2023-02-15T02:58:33;22.13;;;11.80;;
7412;SDS011;3748;48.136;11.538;2023-02-15T03:01:06;28.80;;;13.23;;
7412;SDS011;3748;48.136;11.538;2023-02-15T03:03:40;60.03;;;14.60;;
7412;SDS011;3748;48.136;11.538;2023-02-15T03:06:10;62.33;;;12.97;;
7412;SDS011;3748;48.136;11.538;2023-02-15T03:08:43;75.70;;;17.63;;
7412;SDS011;3748;48.136;11.538;2023-02-15T03:11:14;39.83;;;12.43;;
7412;SDS011;3748;48.136;11.538;2023-02-15T03:13:41;38.80;;;14.77;;
7412;SDS011;3748;48.136;11.538;2023-02-15T03:16:10;41.60;;;13.90;;
7412;SDS011;3748;48.136;11.538;2023-02-15T03:18:54;34.00;;;14.03;;
7412;SDS011;3748;48.136;11.538;2023-02-15T03:21:28;43.87;;;14.43;;
7412;SDS011;3748;48.136;11.538;2023-02-15T03:23:59;49.10;;;14.23;;
7412;SDS011;3748;48.136;11.538;2023-02-15T03:26:30;39.50;;;14.60;;
7412;SDS011;3748;48.136;11.538;2023-02-15T03:28:59;28.00;;;12.30;;
7412;SDS011;3748;48.136;11.538;2023-02-15T03:31:28;46.30;;;14.53;;
7412;SDS011;3748;48.136;11.538;2023-02-15T03:34:00;50.80;;;14.50;;
7412;SDS011;3748;48.136;11.538;2023-02-15T03:36:30;59.83;;;15.37;;
7412;SDS011;3748;48.136;11.538;2023-02-15T03:39:05;114.47;;;21.60;;
7412;SDS011;3748;48.136;11.538;2023-02-15T03:41:39;49.33;;;15.70;;
7412;SDS011;3748;48.136;11.538;2023-02-15T03:44:12;30.57;;;14.80;;
7412;SDS011;3748;48.136;11.538;2023-02-15T03:46:45;27.03;;;11.93;;
7412;SDS011;3748;48.136;11.538;2023-02-15T03:49:20;22.17;;;13.33;;
7412;SDS011;3748;48.136;11.538;2023-02-15T03:51:50;31.40;;;15.00;;
7412;SDS011;3748;48.136;11.538;2023-02-15T03:54:21;40.93;;;16.70;;
7412;SDS011;3748;48.136;11.538;2023-02-15T03:57:09;35.07;;;16.00;;
7412;SDS011;3748;48.136;11.538;2023-02-15T03:59:55;28.93;;;15.50;;
7412;SDS011;3748;48.136;11.538;2023-02-15T04:02:41;29.33;;;14.13;;
7412;SDS011;3748;48.136;11.538;2023-02-15T04:05:15;28.90;;;15.17;;
7412;SDS011;3748;48.136;11.538;2023-02-15T04:07:42;32.37;;;16.70;;
7412;SDS011;3748;48.136;11.538;2023-02-15T04:10:09;33.37;;;15.43;;
7412;SDS011;3748;48.136;11.538;2023-02-15T04:12:53;22.50;;;14.03;;
7412;SDS011;3748;48.136;11.538;2023-02-15T04:15:20;22.40;;;12.73;;
7412;SDS011;3748;48.136;11.538;2023-02-15T04:18:05;28.83;;;14.30;;
7412;SDS011;3748;48.136;11.538;2023-02-15T04:20:33;50.97;;;15.80;;
7412;SDS011;3748;48.136;11.538;2023-02-15T04:23:17;43.50;;;15.77;;
7412;SDS011;3748;48.136;11.538;2023-02-15T04:26:02;34.60;;;13.90;;
7412;SDS011;3748;48.136;11.538;2023-02-15T04:28:29;56.57;;;18.40;;
7412;SDS011;3748;48.136;11.538;2023-02-15T04:30:56;34.00;;;15.27;;
7412;SDS011;3748;48.136;11.538;2023-02-15T04:33:23;56.10;;;17.93;;
7412;SDS011;3748;48.136;11.538;2023-02-15T04:35:51;74.30;;;18.10;;
7412;SDS011;3748;48.136;11.538;2023-02-15T04:38:18;49.40;;;15.37;;
7412;SDS011;3748;48.136;11.538;2023-02-15T04:40:48;32.63;;;13.40;;
7412;SDS011;3748;48.136;11.538;2023-02-15T04:43:16;51.20;;;14.67;;
7412;SDS011;3748;48.136;11.538;2023-02-15T04:45:46;30.30;;;15.30;;
7412;SDS011;3748;48.136;11.538;2023-02-15T04:48:14;66.83;;;17.50;;
7412;SDS011;3748;48.136;11.538;2023-02-15T04:50:41;46.83;;;15.73;;
7412;SDS011;3748;48.136;11.538;2023-02-15T04:53:09;28.00;;;13.83;;
7412;SDS011;3748;48.136;11.538;2023-02-15T04:55:36;34.50;;;15.00;;
7412;SDS011;3748;48.136;11.538;2023-02-15T04:58:03;57.73;;;15.60;;
7412;SDS011;3748;48.136;11.538;2023-02-15T05:00:29;36.43;;;14.00;;
7412;SDS011;3748;48.136;11.538;2023-02-15T05:02:56;64.67;;;17.60;;
7412;SDS011;3748;48.136;11.538;2023-02-15T05:05:23;38.43;;;13.57;;
7412;SDS011;3748;48.136;11.538;2023-02-15T05:07:50;57.00;;;14.80;;
7412;SDS011;3748;48.136;11.538;2023-02-15T05:10:19;67.80;;;18.20;;
7412;SDS011;3748;48.136;11.538;2023-02-15T05:15:17;28.73;;;12.83;;
7412;SDS011;3748;48.136;11.538;2023-02-15T05:17:44;64.63;;;16.07;;
7412;SDS011;3748;48.136;11.538;2023-02-15T05:20:11;29.40;;;13.00;;
7412;SDS011;3748;48.136;11.538;2023-02-15T05:22:38;71.63;;;15.10;;
7412;SDS011;3748;48.136;11.538;2023-02-15T05:25:05;52.13;;;15.00;;
7412;SDS011;3748;48.136;11.538;2023-02-15T05:27:51;52.77;;;15.97;;
7412;SDS011;3748;48.136;11.538;2023-02-15T05:30:35;47.33;;;15.17;;
7412;SDS011;3748;48.136;11.538;2023-02-15T05:33:04;37.30;;;14.23;;
7412;SDS011;3748;48.136;11.538;2023-02-15T05:35:31;67.17;;;19.50;;
7412;SDS011;3748;48.136;11.538;2023-02-15T05:37:58;40.80;;;13.53;;
7412;SDS011;3748;48.136;11.538;2023-02-15T05:40:25;21.57;;;13.67;;
7412;SDS011;3748;48.136;11.538;2023-02-15T05:42:53;23.57;;;12.73;;
7412;SDS011;3748;48.136;11.538;2023-02-15T05:45:20;31.17;;;15.17;;
7412;SDS011;3748;48.136;11.538;2023-02-15T05:47:47;37.70;;;15.80;;
7412;SDS011;3748;48.136;11.538;2023-02-15T05:50:14;48.27;;;15.83;;
7412;SDS011;3748;48.136;11.538;2023-02-15T05:52:40;32.77;;;15.13;;
7412;SDS011;3748;48.136;11.538;2023-02-15T05:55:08;34.43;;;14.20;;
7412;SDS011;3748;48.136;11.538;2023-02-15T05:57:35;42.23;;;16.20;;
7412;SDS011;3748;48.136;11.538;2023-02-15T06:00:03;42.83;;;15.63;;
7412;SDS011;3748;48.136;11.538;2023-02-15T06:02:32;34.20;;;14.77;;
7412;SDS011;3748;48.136;11.538;2023-02-15T06:05:00;34.20;;;17.07;;
7412;SDS011;3748;48.136;11.538;2023-02-15T06:07:26;25.47;;;15.00;;
7412;SDS011;3748;48.136;11.538;2023-02-15T06:09:53;48.07;;;16.80;;
7412;SDS011;3748;48.136;11.538;2023-02-15T06:12:20;31.00;;;15.67;;
7412;SDS011;3748;48.136;11.538;2023-02-15T06:14:47;31.03;;;16.37;;
7412;SDS011;3748;48.136;11.538;2023-02-15T06:17:15;33.23;;;16.00;;
7412;SDS011;3748;48.136;11.538;2023-02-15T06:19:43;78.93;;;23.13;;
7412;SDS011;3748;48.136;11.538;2023-02-15T06:22:09;45.07;;;19.43;;
7412;SDS011;3748;48.136;11.538;2023-02-15T06:24:38;40.27;;;18.70;;
7412;SDS011;3748;48.136;11.538;2023-02-15T06:27:07;104.10;;;26.80;;
7412;SDS011;3748;48.136;11.538;2023-02-15T06:29:34;64.13;;;21.90;;
7412;SDS011;3748;48.136;11.538;2023-02-15T06:32:01;50.30;;;19.90;;
7412;SDS011;3748;48.136;11.538;2023-02-15T06:34:30;63.07;;;20.57;;
7412;SDS011;3748;48.136;11.538;2023-02-15T06:36:57;49.30;;;18.07;;
7412;SDS011;3748;48.136;11.538;2023-02-15T06:39:25;37.17;;;18.27;;
7412;SDS011;3748;48.136;11.538;2023-02-15T06:41:51;40.73;;;16.67;;
7412;SDS011;3748;48.136;11.538;2023-02-15T06:44:18;44.33;;;20.77;;
7412;SDS011;3748;48.136;11.538;2023-02-15T06:46:45;37.70;;;18.93;;
7412;SDS011;3748;48.136;11.538;2023-02-15T06:49:12;39.03;;;18.60;;
7412;SDS011;3748;48.136;11.538;2023-02-15T06:51:40;41.93;;;20.67;;
7412;SDS011;3748;48.136;11.538;2023-02-15T06:54:07;34.43;;;18.43;;
7412;SDS011;3748;48.136;11.538;2023-02-15T06:56:33;46.10;;;20.93;;
7412;SDS011;3748;48.136;11.538;2023-02-15T06:59:00;36.50;;;18.10;;
7412;SDS011;3748;48.136;11.538;2023-02-15T07:01:27;39.80;;;17.33;;
7412;SDS011;3748;48.136;11.538;2023-02-15T07:03:54;30.30;;;16.77;;
7412;SDS011;3748;48.136;11.538;2023-02-15T07:06:21;33.67;;;17.43;;
7412;SDS011;3748;48.136;11.538;2023-02-15T07:08:49;33.03;;;18.57;;
7412;SDS011;3748;48.136;11.538;2023-02-15T07:11:16;24.83;;;15.80;;
7412;SDS011;3748;48.136;11.538;2023-02-15T07:14:00;31.47;;;16.50;;
7412;SDS011;3748;48.136;11.538;2023-02-15T07:16:27;35.70;;;18.03;;
7412;SDS011;3748;48.136;11.538;2023-02-15T07:18:54;29.97;;;16.37;;
7412;SDS011;3748;48.136;11.538;2023-02-15T07:21:20;27.97;;;17.30;;
7412;SDS011;3748;48.136;11.538;2023-02-15T07:23:47;30.53;;;17.33;;
7412;SDS011;3748;48.136;11.538;2023-02-15T07:26:16;38.70;;;19.57;;
7412;SDS011;3748;48.136;11.538;2023-02-15T07:28:42;34.33;;;18.03;;
7412;SDS011;3748;48.136;11.538;2023-02-15T07:31:09;30.90;;;16.30;;
7412;SDS011;3748;48.136;11.538;2023-02-15T07:33:36;25.13;;;15.80;;
7412;SDS011;3748;48.136;11.538;2023-02-15T07:36:03;33.80;;;16.07;;
7412;SDS011;3748;48.136;11.538;2023-02-15T07:38:31;26.87;;;14.30;;
7412;SDS011;3748;48.136;11.538;2023-02-15T07:41:02;32.67;;;15.97;;
7412;SDS011;3748;48.136;11.538;2023-02-15T07:43:32;35.73;;;18.87;;
7412;SDS011;3748;48.136;11.538;2023-02-15T07:45:59;30.80;;;16.53;;
7412;SDS011;3748;48.136;11.538;2023-02-15T07:48:27;26.20;;;14.50;;
7412;SDS011;3748;48.136;11.538;2023-02-15T07:50:56;25.93;;;15.67;;
7412;SDS011;3748;48.136;11.538;2023-02-15T07:53:24;21.27;;;14.63;;
7412;SDS011;3748;48.136;11.538;2023-02-15T07:55:51;22.10;;;13.93;;
7412;SDS011;3748;48.136;11.538;2023-02-15T07:58:20;25.03;;;15.60;;
7412;SDS011;3748;48.136;11.538;2023-02-15T08:01:07;23.07;;;13.40;;
7412;SDS011;3748;48.136;11.538;2023-02-15T08:03:33;22.03;;;14.10;;
7412;SDS011;3748;48.136;11.538;2023-02-15T08:06:00;19.57;;;12.63;;
7412;SDS011;3748;48.136;11.538;2023-02-15T08:08:27;22.97;;;12.97;;
7412;SDS011;3748;48.136;11.538;2023-02-15T08:10:58;24.33;;;14.60;;
7412;SDS011;3748;48.136;11.538;2023-02-15T08:13:45;24.33;;;14.30;;
7412;SDS011;3748;48.136;11.538;2023-02-15T08:16:18;23.00;;;12.87;;
7412;SDS011;3748;48.136;11.538;2023-02-15T08:18:46;23.27;;;12.90;;
7412;SDS011;3748;48.136;11.538;2023-02-15T08:21:13;24.40;;;15.30;;
7412;SDS011;3748;48.136;11.538;2023-02-15T08:23:40;21.30;;;13.43;;
7412;SDS011;3748;48.136;11.538;2023-02-15T08:26:07;24.80;;;14.40;;
7412;SDS011;3748;48.136;11.538;2023-02-15T08:28:34;20.40;;;12.33;;
7412;SDS011;3748;48.136;11.538;2023-02-15T08:31:06;25.30;;;14.30;;
7412;SDS011;3748;48.136;11.538;2023-02-15T08:33:35;28.60;;;15.37;;
7412;SDS011;3748;48.136;11.538;2023-02-15T08:36:03;25.20;;;14.70;;
7412;SDS011;3748;48.136;11.538;2023-02-15T08:38:30;20.60;;;14.13;;
7412;SDS011;3748;48.136;11.538;2023-02-15T08:40:57;30.23;;;16.83;;
7412;SDS011;3748;48.136;11.538;2023-02-15T08:43:34;26.97;;;16.77;;
7412;SDS011;3748;48.136;11.538;2023-02-15T08:46:01;27.70;;;16.13;;
7412;SDS011;3748;48.136;11.538;2023-02-15T08:48:29;25.13;;;15.67;;
7412;SDS011;3748;48.136;11.538;2023-02-15T08:50:56;19.33;;;13.80;;
7412;SDS011;3748;48.136;11.538;2023-02-15T08:53:22;23.50;;;14.30;;
7412;SDS011;3748;48.136;11.538;2023-02-15T08:55:54;19.20;;;12.63;;
7412;SDS011;3748;48.136;11.538;2023-02-15T08:58:21;21.33;;;13.57;;
7412;SDS011;3748;48.136;11.538;2023-02-15T09:00:48;20.23;;;13.47;;
7412;SDS011;3748;48.136;11.538;2023-02-15T09:03:15;18.30;;;11.63;;
7412;SDS011;3748;48.136;11.538;2023-02-15T09:05:44;17.43;;;13.07;;
7412;SDS011;3748;48.136;11.538;2023-02-15T09:08:10;19.97;;;12.77;;
7412;SDS011;3748;48.136;11.538;2023-02-15T09:10:37;18.70;;;11.80;;
7412;SDS011;3748;48.136;11.538;2023-02-15T09:13:04;16.70;;;11.17;;
7412;SDS011;3748;48.136;11.538;2023-02-15T09:15:31;15.70;;;12.27;;
7412;SDS011;3748;48.136;11.538;2023-02-15T09:17:58;15.10;;;11.23;;
7412;SDS011;3748;48.136;11.538;2023-02-15T09:20:29;21.30;;;13.03;;
7412;SDS011;3748;48.136;11.538;2023-02-15T09:22:57;17.10;;;13.10;;
7412;SDS011;3748;48.136;11.538;2023-02-15T09:25:24;19.90;;;13.50;;
7412;SDS011;3748;48.136;11.538;2023-02-15T09:27:56;21.83;;;14.10;;
7412;SDS011;3748;48.136;11.538;2023-02-15T09:30:27;17.83;;;12.80;;
7412;SDS011;3748;48.136;11.538;2023-02-15T09:32:53;22.53;;;13.50;;
7412;SDS011;3748;48.136;11.538;2023-02-15T09:35:20;19.67;;;12.87;;
7412;SDS011;3748;48.136;11.538;2023-02-15T09:37:47;17.27;;;13.13;;
7412;SDS011;3748;48.136;11.538;2023-02-15T09:40:15;20.77;;;16.07;;
7412;SDS011;3748;48.136;11.538;2023-02-15T09:42:46;14.70;;;12.90;;
7412;SDS011;3748;48.136;11.538;2023-02-15T09:45:23;15.30;;;13.47;;
7412;SDS011;3748;48.136;11.538;2023-02-15T09:48:00;16.20;;;12.90;;
7412;SDS011;3748;48.136;11.538;2023-02-15T09:50:43;16.03;;;12.60;;
7412;SDS011;3748;48.136;11.538;2023-02-15T09:53:25;18.60;;;13.30;;
7412;SDS011;3748;48.136;11.538;2023-02-15T09:56:09;15.43;;;12.73;;
7412;SDS011;3748;48.136;11.538;2023-02-15T09:58:44;16.83;;;12.73;;
7412;SDS011;3748;48.136;11.538;2023-02-15T10:01:20;20.93;;;14.30;;
7412;SDS011;3748;48.136;11.538;2023-02-15T10:04:01;17.13;;;12.30;;
7412;SDS011;3748;48.136;11.538;2023-02-15T10:06:45;16.13;;;11.83;;
7412;SDS011;3748;48.136;11.538;2023-02-15T10:09:30;15.47;;;12.07;;
7412;SDS011;3748;48.136;11.538;2023-02-15T10:12:14;15.70;;;12.93;;
7412;SDS011;3748;48.136;11.538;2023-02-15T10:15:04;19.67;;;12.53;;
7412;SDS011;3748;48.136;11.538;2023-02-15T10:17:48;17.47;;;12.83;;
7412;SDS011;3748;48.136;11.538;2023-02-15T10:20:28;17.57;;;14.23;;
7412;SDS011;3748;48.136;11.538;2023-02-15T10:23:09;21.00;;;18.27;;
7412;SDS011;3748;48.136;11.538;2023-02-15T10:25:49;15.90;;;13.93;;
7412;SDS011;3748;48.136;11.538;2023-02-15T10:28:23;15.03;;;13.23;;
7412;SDS011;3748;48.136;11.538;2023-02-15T10:30:56;14.83;;;13.23;;
7412;SDS011;3748;48.136;11.538;2023-02-15T10:33:36;18.03;;;12.50;;
7412;SDS011;3748;48.136;11.538;2023-02-15T10:36:08;17.37;;;13.30;;
7412;SDS011;3748;48.136;11.538;2023-02-15T10:38:48;17.57;;;14.10;;
7412;SDS011;3748;48.136;11.538;2023-02-15T10:41:27;18.87;;;14.77;;
7412;SDS011;3748;48.136;11.538;2023-02-15T10:44:08;17.50;;;13.60;;
7412;SDS011;3748;48.136;11.538;2023-02-15T10:49:51;20.43;;;14.63;;
7412;SDS011;3748;48.136;11.538;2023-02-15T10:52:33;20.63;;;14.30;;
7412;SDS011;3748;48.136;11.538;2023-02-15T10:55:10;24.70;;;16.00;;
7412;SDS011;3748;48.136;11.538;2023-02-15T10:57:46;24.70;;;15.73;;
7412;SDS011;3748;48.136;11.538;2023-02-15T11:00:26;19.03;;;14.10;;
7412;SDS011;3748;48.136;11.538;2023-02-15T11:03:07;28.83;;;16.93;;
7412;SDS011;3748;48.136;11.538;2023-02-15T11:05:51;24.30;;;15.97;;
7412;SDS011;3748;48.136;11.538;2023-02-15T11:08:25;19.70;;;15.90;;
7412;SDS011;3748;48.136;11.538;2023-02-15T11:10:57;27.43;;;16.60;;
7412;SDS011;3748;48.136;11.538;2023-02-15T11:13:29;21.17;;;16.47;;
7412;SDS011;3748;48.136;11.538;2023-02-15T11:16:02;23.20;;;16.20;;
7412;SDS011;3748;48.136;11.538;2023-02-15T11:18:32;28.00;;;21.00;;
7412;SDS011;3748;48.136;11.538;2023-02-15T11:21:03;32.50;;;18.07;;
7412;SDS011;3748;48.136;11.538;2023-02-15T11:23:33;25.90;;;18.60;;
7412;SDS011;3748;48.136;11.538;2023-02-15T11:26:09;25.03;;;17.80;;
7412;SDS011;3748;48.136;11.538;2023-02-15T11:28:39;25.23;;;18.80;;
7412;SDS011;3748;48.136;11.538;2023-02-15T11:31:14;21.83;;;17.60;;
7412;SDS011;3748;48.136;11.538;2023-02-15T11:33:44;23.40;;;19.37;;
7412;SDS011;3748;48.136;11.538;2023-02-15T11:36:15;28.37;;;19.87;;
7412;SDS011;3748;48.136;11.538;2023-02-15T11:38:44;22.87;;;18.63;;
7412;SDS011;3748;48.136;11.538;2023-02-15T11:41:16;24.30;;;19.37;;
7412;SDS011;3748;48.136;11.538;2023-02-15T11:43:49;24.60;;;19.27;;
7412;SDS011;3748;48.136;11.538;2023-02-15T11:46:21;23.20;;;19.67;;
7412;SDS011;3748;48.136;11.538;2023-02-15T11:48:48;24.60;;;18.80;;
7412;SDS011;3748;48.136;11.538;2023-02-15T11:51:16;34.10;;;20.10;;
7412;SDS011;3748;48.136;11.538;2023-02-15T11:53:44;24.67;;;19.13;;
7412;SDS011;3748;48.136;11.538;2023-02-15T11:56:13;28.30;;;20.70;;
7412;SDS011;3748;48.136;11.538;2023-02-15T11:58:42;22.90;;;20.60;;
7412;SDS011;3748;48.136;11.538;2023-02-15T12:01:17;25.10;;;22.40;;
7412;SDS011;3748;48.136;11.538;2023-02-15T12:03:56;27.03;;;20.10;;
7412;SDS011;3748;48.136;11.538;2023-02-15T12:06:28;28.87;;;20.63;;
7412;SDS011;3748;48.136;11.538;2023-02-15T12:09:00;33.73;;;23.33;;
7412;SDS011;3748;48.136;11.538;2023-02-15T12:11:33;26.03;;;21.07;;
7412;SDS011;3748;48.136;11.538;2023-02-15T12:14:02;38.50;;;25.70;;
7412;SDS011;3748;48.136;11.538;2023-02-15T12:16:34;29.37;;;22.40;;
7412;SDS011;3748;48.136;11.538;2023-02-15T12:19:13;24.40;;;21.80;;
7412;SDS011;3748;48.136;11.538;2023-02-15T12:21:55;29.30;;;21.53;;
7412;SDS011;3748;48.136;11.538;2023-02-15T12:24:25;26.27;;;22.17;;
7412;SDS011;3748;48.136;11.538;2023-02-15T12:26:56;29.70;;;21.80;;
7412;SDS011;3748;48.136;11.538;2023-02-15T12:29:27;21.77;;;19.53;;
7412;SDS011;3748;48.136;11.538;2023-02-15T12:31:57;36.47;;;22.77;;
7412;SDS011;3748;48.136;11.538;2023-02-15T12:34:25;23.93;;;20.30;;
7412;SDS011;3748;48.136;11.538;2023-02-15T12:37:08;24.20;;;18.77;;
7412;SDS011;3748;48.136;11.538;2023-02-15T12:39:42;26.37;;;19.07;;
7412;SDS011;3748;48.136;11.538;2023-02-15T12:42:18;34.33;;;25.53;;
7412;SDS011;3748;48.136;11.538;2023-02-15T12:44:58;20.73;;;18.47;;
7412;SDS011;3748;48.136;11.538;2023-02-15T12:47:28;22.37;;;19.07;;
7412;SDS011;3748;48.136;11.538;2023-02-15T12:50:11;26.20;;;19.60;;
7412;SDS011;3748;48.136;11.538;2023-02-15T12:52:43;22.60;;;17.97;;
7412;SDS011;3748;48.136;11.538;2023-02-15T12:55:18;20.50;;;18.30;;
7412;SDS011;3748;48.136;11.538;2023-02-15T12:57:47;22.17;;;19.70;;
7412;SDS011;3748;48.136;11.538;2023-02-15T13:00:25;25.73;;;19.70;;
7412;SDS011;3748;48.136;11.538;2023-02-15T13:02:58;21.20;;;18.13;;
7412;SDS011;3748;48.136;11.538;2023-02-15T13:05:28;19.90;;;17.80;;
7412;SDS011;3748;48.136;11.538;2023-02-15T13:07:59;20.40;;;17.03;;
7412;SDS011;3748;48.136;11.538;2023-02-15T13:10:33;21.60;;;17.77;;
7412;SDS011;3748;48.136;11.538;2023-02-15T13:13:08;21.73;;;17.77;;
7412;SDS011;3748;48.136;11.538;2023-02-15T13:15:36;21.73;;;17.90;;
7412;SDS011;3748;48.136;11.538;2023-02-15T13:18:10;18.50;;;16.60;;
7412;SDS011;3748;48.136;11.538;2023-02-15T13:20:42;21.70;;;18.97;;
7412;SDS011;3748;48.136;11.538;2023-02-15T13:23:13;20.70;;;17.73;;
7412;SDS011;3748;48.136;11.538;2023-02-15T13:25:50;20.40;;;16.20;;
7412;SDS011;3748;48.136;11.538;2023-02-15T13:28:18;23.53;;;18.50;;
7412;SDS011;3748;48.136;11.538;2023-02-15T13:30:48;17.40;;;15.60;;
7412;SDS011;3748;48.136;11.538;2023-02-15T13:33:19;18.97;;;17.07;;
7412;SDS011;3748;48.136;11.538;2023-02-15T13:35:53;20.73;;;16.83;;
7412;SDS011;3748;48.136;11.538;2023-02-15T13:38:31;18.20;;;16.27;;
7412;SDS011;3748;48.136;11.538;2023-02-15T13:41:11;22.13;;;16.53;;
7412;SDS011;3748;48.136;11.538;2023-02-15T13:43:43;22.63;;;17.93;;
7412;SDS011;3748;48.136;11.538;2023-02-15T13:46:23;18.50;;;16.23;;
7412;SDS011;3748;48.136;11.538;2023-02-15T13:49:05;17.27;;;15.03;;
7412;SDS011;3748;48.136;11.538;2023-02-15T13:51:43;17.90;;;16.20;;
7412;SDS011;3748;48.136;11.538;2023-02-15T13:54:24;21.03;;;15.53;;
7412;SDS011;3748;48.136;11.538;2023-02-15T13:57:05;17.57;;;15.77;;
7412;SDS011;3748;48.136;11.538;2023-02-15T13:59:46;19.10;;;16.03;;
7412;SDS011;3748;48.136;11.538;2023-02-15T14:02:34;20.83;;;16.00;;
7412;SDS011;3748;48.136;11.538;2023-02-15T14:05:36;18.17;;;16.23;;
7412;SDS011;3748;48.136;11.538;2023-02-15T14:08:26;17.87;;;15.97;;
7412;SDS011;3748;48.136;11.538;2023-02-15T14:11:06;19.10;;;17.10;;
7412;SDS011;3748;48.136;11.538;2023-02-15T14:16:34;20.20;;;16.50;;
7412;SDS011;3748;48.136;11.538;2023-02-15T14:19:13;20.13;;;14.57;;
7412;SDS011;3748;48.136;11.538;2023-02-15T14:21:49;16.70;;;15.10;;
7412;SDS011;3748;48.136;11.538;2023-02-15T14:24:27;16.80;;;14.00;;
7412;SDS011;3748;48.136;11.538;2023-02-15T14:27:02;23.37;;;15.57;;
7412;SDS011;3748;48.136;11.538;2023-02-15T14:29:42;17.13;;;15.43;;
7412;SDS011;3748;48.136;11.538;2023-02-15T14:32:16;20.13;;;16.57;;
7412;SDS011;3748;48.136;11.538;2023-02-15T14:34:48;18.33;;;16.17;;
7412;SDS011;3748;48.136;11.538;2023-02-15T14:37:21;24.53;;;18.50;;
7412;SDS011;3748;48.136;11.538;2023-02-15T14:39:57;17.50;;;13.97;;
7412;SDS011;3748;48.136;11.538;2023-02-15T14:42:47;18.13;;;14.00;;
7412;SDS011;3748;48.136;11.538;2023-02-15T14:45:21;20.97;;;15.20;;
7412;SDS011;3748;48.136;11.538;2023-02-15T14:47:56;17.17;;;15.40;;
7412;SDS011;3748;48.136;11.538;2023-02-15T14:50:40;16.80;;;13.67;;
7412;SDS011;3748;48.136;11.538;2023-02-15T14:53:22;18.83;;;14.00;;
7412;SDS011;3748;48.136;11.538;2023-02-15T14:56:20;23.17;;;15.67;;
7412;SDS011;3748;48.136;11.538;2023-02-15T15:01:55;24.30;;;15.17;;
7412;SDS011;3748;48.136;11.538;2023-02-15T15:04:26;17.10;;;14.30;;
7412;SDS011;3748;48.136;11.538;2023-02-15T15:06:59;48.53;;;43.23;;
7412;SDS011;3748;48.136;11.538;2023-02-15T15:09:31;20.87;;;17.17;;
7412;SDS011;3748;48.136;11.538;2023-02-15T15:22:50;31.03;;;22.70;;
7412;SDS011;3748;48.136;11.538;2023-02-15T15:25:42;17.77;;;13.87;;
7412;SDS011;3748;48.136;11.538;2023-02-15T15:31:14;23.07;;;18.70;;
7412;SDS011;3748;48.136;11.538;2023-02-15T16:43:51;29.60;;;17.20;;
7412;SDS011;3748;48.136;11.538;2023-02-15T16:46:21;24.07;;;15.50;;
7412;SDS011;3748;48.136;11.538;2023-02-15T16:59:05;31.60;;;15.90;;
7412;SDS011;3748;48.136;11.538;2023-02-15T17:01:32;25.93;;;18.53;;
7412;SDS011;3748;48.136;11.538;2023-02-15T17:04:13;33.40;;;18.10;;
7412;SDS011;3748;48.136;11.538;2023-02-15T17:06:40;26.30;;;18.00;;
7412;SDS011;3748;48.136;11.538;2023-02-15T17:09:13;23.50;;;16.47;;
7412;SDS011;3748;48.136;11.538;2023-02-15T17:11:43;30.50;;;17.03;;
7412;SDS011;3748;48.136;11.538;2023-02-15T17:14:18;30.13;;;18.03;;
7412;SDS011;3748;48.136;11.538;2023-02-15T17:16:47;27.57;;;16.23;;
7412;SDS011;3748;48.136;11.538;2023-02-15T17:19:16;25.00;;;15.03;;
7412;SDS011;3748;48.136;11.538;2023-02-15T17:21:46;29.23;;;16.53;;
7412;SDS011;3748;48.136;11.538;2023-02-15T17:24:16;33.87;;;16.50;;
7412;SDS011;3748;48.136;11.538;2023-02-15T17:26:48;26.90;;;17.87;;
7412;SDS011;3748;48.136;11.538;2023-02-15T17:29:20;25.43;;;16.33;;
7412;SDS011;3748;48.136;11.538;2023-02-15T17:31:49;32.70;;;17.80;;
7412;SDS011;3748;48.136;11.538;2023-02-15T17:37:00;28.90;;;18.23;;
7412;SDS011;3748;48.136;11.538;2023-02-15T17:39:27;31.17;;;17.27;;
7412;SDS011;3748;48.136;11.538;2023-02-15T17:41:54;26.50;;;17.17;;
7412;SDS011;3748;48.136;11.538;2023-02-15T17:44:23;24.40;;;15.90;;
7412;SDS011;3748;48.136;11.538;2023-02-15T17:46:51;33.13;;;19.43;;
7412;SDS011;3748;48.136;11.538;2023-02-15T17:49:21;27.33;;;17.93;;
7412;SDS011;3748;48.136;11.538;2023-02-15T17:51:50;29.00;;;17.03;;
7412;SDS011;3748;48.136;11.538;2023-02-15T17:54:17;23.60;;;15.80;;
7412;SDS011;3748;48.136;11.538;2023-02-15T17:57:14;24.63;;;17.03;;
7412;SDS011;3748;48.136;11.538;2023-02-15T17:59:43;26.07;;;16.33;;
7412;SDS011;3748;48.136;11.538;2023-02-15T18:02:29;29.47;;;16.33;;
7412;SDS011;3748;48.136;11.538;2023-02-15T18:05:16;25.50;;;15.90;;
7412;SDS011;3748;48.136;11.538;2023-02-15T18:08:01;25.53;;;15.67;;
7412;SDS011;3748;48.136;11.538;2023-02-15T18:10:45;32.53;;;16.80;;
7412;SDS011;3748;48.136;11.538;2023-02-15T18:13:30;20.93;;;15.53;;
7412;SDS011;3748;48.136;11.538;2023-02-15T18:15:58;26.30;;;17.53;;
7412;SDS011;3748;48.136;11.538;2023-02-15T18:18:26;28.27;;;16.43;;
7412;SDS011;3748;48.136;11.538;2023-02-15T18:20:53;24.23;;;15.70;;
7412;SDS011;3748;48.136;11.538;2023-02-15T18:23:20;24.77;;;15.97;;
7412;SDS011;3748;48.136;11.538;2023-02-15T18:25:47;25.00;;;15.60;;
7412;SDS011;3748;48.136;11.538;2023-02-15T18:28:14;35.30;;;18.37;;
7412;SDS011;3748;48.136;11.538;2023-02-15T18:30:41;26.90;;;16.10;;
7412;SDS011;3748;48.136;11.538;2023-02-15T18:33:13;26.13;;;16.23;;
7412;SDS011;3748;48.136;11.538;2023-02-15T18:35:47;23.13;;;14.10;;
7412;SDS011;3748;48.136;11.538;2023-02-15T18:38:15;29.17;;;17.50;;